Time;durP1;ratioP1;P1;durP2;ratioP2;P2;SDS_P1;SDS_P2;PMS_P1;PMS_P2;Temp;Humidity;BMP_temperature;BMP_pressure;BME280_temperature;BME280_humidity;BME280_pressure;Samples;Min_cycle;Max_cycle;Signal;HPM_P1;HPM_P2
2021/10/18 00:00:11;;;;;;;4.37;3.90;;;;;;;2.70;84.30;98333.88;6249157;28;20190;-74
2021/10/18 00:03:13;;;;;;;4.73;3.53;;;;;;;2.64;84.29;98336.75;6249912;28;20219;-74
2021/10/18 00:06:16;;;;;;;4.03;3.13;;;;;;;2.57;83.85;98335.28;6249587;28;20326;-74
2021/10/18 00:09:20;;;;;;;4.90;3.50;;;;;;;2.52;84.30;98338.03;6249295;28;20214;-74
2021/10/18 00:12:22;;;;;;;4.90;3.50;;;;;;;2.45;84.27;98349.63;6247843;28;20317;-74
2021/10/18 00:15:24;;;;;;;6.37;3.80;;;;;;;2.45;84.54;98351.38;6247755;28;20615;-74
2021/10/18 00:18:26;;;;;;;4.60;3.70;;;;;;;2.42;84.31;98348.88;6248838;28;20322;-74
2021/10/18 00:21:29;;;;;;;3.40;3.10;;;;;;;2.37;84.17;98346.44;6248658;28;20215;-74
2021/10/18 00:24:30;;;;;;;5.10;3.57;;;;;;;2.33;84.24;98344.84;6248816;28;20564;-74
2021/10/18 00:27:32;;;;;;;5.73;4.53;;;;;;;2.30;84.25;98354.50;6248738;28;20707;-74
2021/10/18 00:30:34;;;;;;;3.73;3.30;;;;;;;2.28;84.78;98345.94;6248284;28;20312;-74
2021/10/18 00:33:36;;;;;;;4.57;3.57;;;;;;;2.29;84.28;98345.03;6247724;28;20216;-74
2021/10/18 00:36:38;;;;;;;6.33;3.93;;;;;;;2.27;84.39;98350.28;6218058;28;20212;-74
2021/10/18 00:39:41;;;;;;;5.83;3.63;;;;;;;2.26;84.19;98345.97;6230897;28;20280;-74
2021/10/18 00:42:43;;;;;;;5.90;4.20;;;;;;;2.27;84.42;98345.09;6248423;28;20721;-74
2021/10/18 00:45:45;;;;;;;6.20;3.57;;;;;;;2.27;84.34;98346.84;6230394;28;20251;-74
2021/10/18 00:48:48;;;;;;;4.60;3.67;;;;;;;2.27;84.26;98347.69;6245576;28;20196;-74
2021/10/18 00:51:51;;;;;;;4.77;3.97;;;;;;;2.27;84.48;98358.09;6247022;28;20217;-74
2021/10/18 00:54:54;;;;;;;4.77;3.77;;;;;;;2.26;84.68;98347.75;6248092;28;20192;-74
2021/10/18 00:57:57;;;;;;;6.73;4.20;;;;;;;2.22;84.38;98353.03;6247904;28;20231;-74
2021/10/18 01:00:59;;;;;;;6.93;3.57;;;;;;;2.22;84.36;98354.81;6248027;28;20195;-74
2021/10/18 01:04:03;;;;;;;4.53;3.30;;;;;;;2.18;84.66;98350.63;6247818;28;20197;-74
2021/10/18 01:07:06;;;;;;;5.00;3.90;;;;;;;2.17;84.64;98354.13;6247102;28;20762;-74
2021/10/18 01:10:08;;;;;;;5.40;3.40;;;;;;;2.16;84.79;98355.03;6248179;28;20342;-74
2021/10/18 01:13:10;;;;;;;3.40;3.10;;;;;;;2.14;84.43;98351.63;6230154;28;20569;-74
2021/10/18 01:16:14;;;;;;;4.87;3.17;;;;;;;2.16;84.63;98355.03;6247734;28;20220;-74
2021/10/18 01:19:21;;;;;;;4.77;3.07;;;;;;;2.17;84.48;98354.13;6247596;28;20798;-75
2021/10/18 01:22:24;;;;;;;3.47;3.10;;;;;;;2.17;84.66;98351.53;6247674;28;20253;-74
2021/10/18 01:25:27;;;;;;;5.03;3.60;;;;;;;2.16;84.55;98357.63;6246185;28;20192;-74
2021/10/18 01:28:29;;;;;;;5.50;4.03;;;;;;;2.08;84.77;98355.31;6245952;28;20221;-74
2021/10/18 01:31:31;;;;;;;6.17;3.93;;;;;;;2.02;84.46;98359.88;6247152;28;20235;-74
2021/10/18 01:34:34;;;;;;;6.47;4.00;;;;;;;1.97;84.42;98362.66;6247185;28;20203;-74
2021/10/18 01:37:37;;;;;;;4.10;3.57;;;;;;;1.97;85.21;98362.66;6248193;28;20287;-74
2021/10/18 01:40:39;;;;;;;5.93;4.40;;;;;;;1.95;84.80;98358.38;6247098;28;20207;-74
2021/10/18 01:43:41;;;;;;;6.53;4.23;;;;;;;1.97;84.50;98364.41;6246794;28;20271;-74
2021/10/18 01:46:44;;;;;;;4.03;3.47;;;;;;;1.98;84.91;98366.94;6245901;28;20184;-74
2021/10/18 01:49:46;;;;;;;9.40;4.43;;;;;;;2.00;84.28;98359.91;6246574;28;20332;-74
2021/10/18 01:52:51;;;;;;;6.07;4.27;;;;;;;2.04;84.71;98360.66;6246777;28;20329;-74
2021/10/18 01:55:53;;;;;;;6.03;4.63;;;;;;;2.04;85.13;98364.13;6229092;28;20199;-74
2021/10/18 01:58:55;;;;;;;5.23;4.53;;;;;;;2.03;84.96;98354.59;6246261;28;20203;-74
2021/10/18 02:01:57;;;;;;;5.97;4.57;;;;;;;2.02;84.79;98355.50;6221129;28;20291;-74
2021/10/18 02:04:59;;;;;;;4.53;3.87;;;;;;;2.02;85.31;98355.50;6236728;28;20570;-74
2021/10/18 02:08:01;;;;;;;6.30;5.03;;;;;;;2.01;84.97;98360.75;6246372;28;20188;-74
2021/10/18 02:11:03;;;;;;;7.60;5.27;;;;;;;2.02;84.71;98360.72;6246265;28;20246;-74
2021/10/18 02:14:05;;;;;;;7.30;5.20;;;;;;;2.01;85.04;98356.41;6246298;28;20193;-74
2021/10/18 02:17:10;;;;;;;7.50;5.87;;;;;;;2.00;84.71;98365.13;6246216;28;20667;-74
2021/10/18 02:20:14;;;;;;;6.57;4.97;;;;;;;2.01;84.88;98366.81;6246019;28;20192;-74
2021/10/18 02:23:16;;;;;;;5.47;4.70;;;;;;;2.01;85.37;98363.38;6246236;28;20192;-74
2021/10/18 02:26:19;;;;;;;8.77;6.10;;;;;;;2.02;85.29;98355.50;6228236;28;20196;-74
2021/10/18 02:29:21;;;;;;;8.40;6.80;;;;;;;2.03;85.27;98361.56;6245509;28;20314;-74
2021/10/18 02:32:24;;;;;;;8.40;5.57;;;;;;;2.04;85.46;98356.31;6245868;28;20574;-74
2021/10/18 02:35:26;;;;;;;9.10;6.00;;;;;;;2.06;85.10;98357.13;6245734;28;20201;-74
2021/10/18 02:38:28;;;;;;;7.33;5.73;;;;;;;2.08;85.35;98360.53;6245923;28;20742;-74
2021/10/18 02:41:30;;;;;;;8.00;6.13;;;;;;;2.12;85.65;98362.09;6245646;28;20660;-74
2021/10/18 02:44:32;;;;;;;7.97;6.63;;;;;;;2.13;85.88;98353.38;6245757;28;20264;-74
2021/10/18 02:47:35;;;;;;;7.63;6.03;;;;;;;2.14;85.52;98356.84;6245881;28;20194;-74
2021/10/18 02:50:37;;;;;;;9.03;6.97;;;;;;;2.14;85.42;98364.66;6245448;28;20221;-74
2021/10/18 02:53:39;;;;;;;8.33;6.80;;;;;;;2.13;85.94;98361.19;6245666;28;20278;-74
2021/10/18 02:56:43;;;;;;;13.03;6.97;;;;;;;2.16;85.53;98357.63;6245352;28;20694;-74
2021/10/18 02:59:45;;;;;;;9.53;6.47;;;;;;;2.19;85.65;98363.59;6244672;28;20192;-74
2021/10/18 03:02:47;;;;;;;9.07;7.27;;;;;;;2.26;85.87;98361.59;6211937;28;20208;-74
2021/10/18 03:05:49;;;;;;;8.47;6.97;;;;;;;2.33;86.01;98368.28;6245311;28;20205;-74
2021/10/18 03:08:53;;;;;;;8.73;6.23;;;;;;;2.41;85.89;98378.41;6245542;28;20222;-74
2021/10/18 03:11:55;;;;;;;11.13;7.37;;;;;;;2.50;85.59;98373.72;6249001;28;20212;-74
2021/10/18 03:14:56;;;;;;;11.10;6.97;;;;;;;2.57;85.69;98372.59;6250867;28;20772;-74
2021/10/18 03:17:58;;;;;;;11.00;7.90;;;;;;;2.67;85.87;98378.31;6250709;28;20200;-74
2021/10/18 03:21:00;;;;;;;8.53;7.13;;;;;;;2.76;85.45;98377.97;6250126;28;20188;-74
2021/10/18 03:24:02;;;;;;;10.00;6.67;;;;;;;2.82;86.14;98376.88;6232752;28;20205;-74
2021/10/18 03:27:04;;;;;;;9.97;7.73;;;;;;;2.87;85.94;98375.81;6248939;28;20600;-74
2021/10/18 03:30:07;;;;;;;8.73;6.67;;;;;;;2.91;86.33;98379.13;6249049;28;20740;-74
2021/10/18 03:33:09;;;;;;;8.37;6.40;;;;;;;2.93;86.24;98374.72;6249979;28;20545;-74
2021/10/18 03:36:11;;;;;;;8.53;5.83;;;;;;;2.94;86.14;98387.69;6248565;28;20288;-74
2021/10/18 03:39:13;;;;;;;6.77;5.93;;;;;;;2.93;86.42;98388.59;6249938;28;20203;-74
2021/10/18 03:42:15;;;;;;;6.27;5.27;;;;;;;2.96;86.53;98390.25;6249916;28;20201;-74
2021/10/18 03:45:17;;;;;;;6.53;5.50;;;;;;;2.97;86.50;98389.34;6232133;28;20206;-74
2021/10/18 03:48:19;;;;;;;7.37;5.97;;;;;;;2.97;86.67;98386.72;6232186;28;20194;-74
2021/10/18 03:51:22;;;;;;;7.13;5.53;;;;;;;2.97;86.39;98387.59;6249723;28;20205;-74
2021/10/18 03:54:24;;;;;;;7.50;5.33;;;;;;;2.99;86.73;98390.13;6249777;28;20194;-74
2021/10/18 03:57:26;;;;;;;5.87;4.60;;;;;;;3.00;86.64;98389.19;6235140;28;20196;-74
2021/10/18 04:00:29;;;;;;;6.87;4.83;;;;;;;2.97;86.95;98384.97;6249358;28;20197;-74
2021/10/18 04:03:31;;;;;;;4.57;3.70;;;;;;;2.93;86.36;98387.75;6247985;28;20293;-74
2021/10/18 04:06:33;;;;;;;6.13;4.50;;;;;;;2.90;86.58;98388.72;6231947;28;20198;-74
2021/10/18 04:09:38;;;;;;;5.80;4.13;;;;;;;2.85;86.24;98390.66;6249252;28;20266;-74
2021/10/18 04:12:40;;;;;;;5.47;4.23;;;;;;;2.77;86.74;98392.72;6248943;28;20210;-74
2021/10/18 04:15:42;;;;;;;5.83;4.10;;;;;;;2.71;86.56;98402.50;6249034;28;20292;-74
2021/10/18 04:18:44;;;;;;;5.50;4.07;;;;;;;2.65;86.46;98403.59;6230954;28;20189;-74
2021/10/18 04:21:46;;;;;;;5.77;4.27;;;;;;;2.64;86.83;98414.06;6248638;28;20194;-74
2021/10/18 04:24:48;;;;;;;4.33;3.60;;;;;;;2.65;86.77;98419.22;6248826;28;20203;-74
2021/10/18 04:27:50;;;;;;;7.50;4.40;;;;;;;2.68;86.47;98410.44;6230823;28;20300;-74
2021/10/18 04:30:52;;;;;;;4.67;4.00;;;;;;;2.73;86.83;98414.56;6248624;28;20228;-74
2021/10/18 04:33:56;;;;;;;5.07;4.27;;;;;;;2.76;86.49;98408.41;6215263;28;20208;-74
2021/10/18 04:36:59;;;;;;;5.43;3.93;;;;;;;2.75;86.31;98423.19;6248672;28;20504;-74
2021/10/18 04:40:03;;;;;;;5.17;3.33;;;;;;;2.78;86.42;98424.84;6238206;28;20572;-74
2021/10/18 04:43:05;;;;;;;7.43;4.37;;;;;;;2.79;86.89;98427.38;6249025;28;20270;-74
2021/10/18 04:46:07;;;;;;;7.27;4.17;;;;;;;2.81;86.60;98433.38;6248815;28;20686;-74
2021/10/18 04:49:09;;;;;;;4.40;4.00;;;;;;;2.84;86.65;98435.03;6248129;28;20205;-74
2021/10/18 04:52:11;;;;;;;7.33;4.17;;;;;;;2.85;86.54;98434.97;6230636;28;20213;-74
2021/10/18 04:55:14;;;;;;;5.20;4.17;;;;;;;2.84;86.79;98443.69;6248003;28;20671;-74
2021/10/18 04:58:16;;;;;;;7.30;3.87;;;;;;;2.83;87.08;98442.00;6246725;28;20748;-74
2021/10/18 05:01:18;;;;;;;6.00;4.23;;;;;;;2.82;87.09;98445.50;6247945;28;20421;-74
2021/10/18 05:04:20;;;;;;;5.23;4.37;;;;;;;2.81;87.07;98446.41;6230620;28;20252;-74
2021/10/18 05:07:22;;;;;;;7.70;4.37;;;;;;;2.80;86.75;98449.06;6230276;28;20201;-74
2021/10/18 05:10:23;;;;;;;7.87;4.67;;;;;;;2.75;86.68;98459.66;6230086;28;20206;-74
2021/10/18 05:13:26;;;;;;;5.97;4.23;;;;;;;2.74;87.00;98459.72;6247693;28;20197;-74
2021/10/18 05:16:28;;;;;;;5.43;4.53;;;;;;;2.73;86.72;98463.22;6246460;28;20196;-74
2021/10/18 05:19:30;;;;;;;6.00;4.37;;;;;;;2.71;86.71;98468.50;6247320;28;20772;-75
2021/10/18 05:22:32;;;;;;;5.70;4.43;;;;;;;2.72;86.73;98466.75;6247559;28;20185;-74
2021/10/18 05:25:34;;;;;;;5.90;3.83;;;;;;;2.70;87.06;98479.81;6229593;28;20237;-74
2021/10/18 05:28:36;;;;;;;6.57;4.07;;;;;;;2.67;86.76;98479.94;6247120;28;20714;-74
2021/10/18 05:31:38;;;;;;;6.33;4.30;;;;;;;2.64;87.03;98476.59;6221303;28;20318;-75
2021/10/18 05:34:40;;;;;;;4.70;3.87;;;;;;;2.63;86.94;98486.16;6234624;28;20200;-74
2021/10/18 05:37:43;;;;;;;6.10;4.37;;;;;;;2.66;86.88;98493.03;6247188;28;20808;-74
2021/10/18 05:40:49;;;;;;;7.03;5.13;;;;;;;2.65;86.68;98493.94;6246991;28;20638;-74
2021/10/18 05:43:51;;;;;;;5.33;4.77;;;;;;;2.65;86.93;98501.75;6229036;28;20283;-74
2021/10/18 05:46:53;;;;;;;4.57;3.73;;;;;;;2.63;86.76;98499.19;6246612;28;20200;-74
2021/10/18 05:49:55;;;;;;;6.50;4.53;;;;;;;2.62;86.75;98507.91;6246849;28;20186;-74
2021/10/18 05:52:57;;;;;;;5.70;3.90;;;;;;;2.61;86.37;98516.63;6228739;28;20229;-74
2021/10/18 05:55:59;;;;;;;5.73;4.07;;;;;;;2.64;86.90;98529.56;6246435;28;20322;-74
2021/10/18 05:59:01;;;;;;;5.77;4.90;;;;;;;2.69;86.85;98532.88;6228574;28;20193;-74
2021/10/18 06:02:03;;;;;;;4.57;3.93;;;;;;;2.77;86.36;98532.59;6220814;28;20676;-74
2021/10/18 06:05:05;;;;;;;5.37;4.70;;;;;;;2.87;86.52;98541.78;6229376;28;20242;-74
2021/10/18 06:08:08;;;;;;;7.47;5.00;;;;;;;2.94;86.56;98549.31;6246197;28;20200;-74
2021/10/18 06:11:11;;;;;;;7.73;5.83;;;;;;;3.05;86.40;98546.34;6245992;28;20712;-74
2021/10/18 06:14:13;;;;;;;7.87;5.43;;;;;;;3.19;86.39;98551.06;6244834;28;20200;-74
2021/10/18 06:17:15;;;;;;;6.73;5.30;;;;;;;3.36;86.38;98553.88;6246066;28;20507;-74
2021/10/18 06:20:19;;;;;;;5.77;4.53;;;;;;;3.53;86.24;98554.09;6246059;28;20306;-75
2021/10/18 06:23:23;;;;;;;7.93;5.63;;;;;;;3.68;86.05;98558.75;6246021;28;20670;-74
2021/10/18 06:26:25;;;;;;;7.50;6.30;;;;;;;3.82;85.43;98554.72;6245789;28;20291;-74
2021/10/18 06:29:29;;;;;;;7.47;5.50;;;;;;;3.93;85.46;98563.00;6244285;28;20238;-72
2021/10/18 06:32:32;;;;;;;5.13;4.27;;;;;;;4.02;85.30;98566.09;6220065;28;20680;-72
2021/10/18 06:35:36;;;;;;;6.00;4.87;;;;;;;4.10;85.49;98560.56;6223863;28;20285;-72
2021/10/18 06:38:38;;;;;;;5.53;3.90;;;;;;;4.18;85.25;98568.09;6245896;28;20198;-72
2021/10/18 06:41:40;;;;;;;7.27;4.63;;;;;;;4.25;85.49;98574.78;6245992;28;20234;-72
2021/10/18 06:44:42;;;;;;;6.40;4.60;;;;;;;4.33;84.63;98575.31;6244175;28;20273;-72
2021/10/18 06:47:45;;;;;;;5.50;4.73;;;;;;;4.40;85.41;98577.59;6245437;28;20672;-72
2021/10/18 06:50:48;;;;;;;6.53;4.40;;;;;;;4.49;84.87;98588.59;6227879;28;20310;-72
2021/10/18 06:53:54;;;;;;;5.13;4.00;;;;;;;4.57;84.99;98591.75;6227322;28;20558;-72
2021/10/18 06:56:56;;;;;;;5.07;4.47;;;;;;;4.68;84.49;98597.38;6244393;28;20206;-72
2021/10/18 06:59:58;;;;;;;4.07;3.47;;;;;;;4.81;84.15;98591.53;6245280;28;20203;-72
2021/10/18 07:03:02;;;;;;;5.37;4.07;;;;;;;4.98;84.90;98597.84;6245280;28;20206;-72
2021/10/18 07:06:04;;;;;;;4.30;3.40;;;;;;;5.12;83.76;98598.06;6245214;28;20195;-72
2021/10/18 07:09:06;;;;;;;5.77;4.20;;;;;;;5.29;84.14;98605.22;6227805;28;20245;-72
2021/10/18 07:12:09;;;;;;;4.93;3.73;;;;;;;5.46;83.76;98606.16;6245207;28;20208;-72
2021/10/18 07:15:11;;;;;;;6.87;4.30;;;;;;;5.64;83.26;98607.06;6245223;28;20680;-72
2021/10/18 07:18:13;;;;;;;4.90;3.60;;;;;;;5.88;83.03;98620.88;6245837;28;20200;-72
2021/10/18 07:21:15;;;;;;;4.87;4.03;;;;;;;6.10;82.50;98611.06;6243676;28;20221;-72
2021/10/18 07:24:17;;;;;;;6.13;4.37;;;;;;;6.32;82.38;98613.50;6227363;28;20228;-72
2021/10/18 07:27:20;;;;;;;4.77;3.93;;;;;;;6.53;81.68;98615.09;6245093;28;20251;-72
2021/10/18 07:30:22;;;;;;;4.23;3.83;;;;;;;6.78;81.72;98608.63;6245153;28;20306;-72
2021/10/18 07:33:24;;;;;;;5.00;4.10;;;;;;;7.03;81.38;98617.81;6227799;28;20208;-74
2021/10/18 07:36:27;;;;;;;4.57;3.83;;;;;;;7.22;80.65;98615.06;6229143;28;20207;-74
2021/10/18 07:39:29;;;;;;;4.00;3.60;;;;;;;7.29;80.34;98621.69;6243823;28;20262;-75
2021/10/18 07:42:33;;;;;;;6.23;3.80;;;;;;;7.24;81.11;98615.00;6243620;28;20725;-74
2021/10/18 07:45:35;;;;;;;4.10;3.70;;;;;;;7.17;81.31;98624.97;6243528;28;20200;-74
2021/10/18 07:48:37;;;;;;;4.50;3.43;;;;;;;7.12;81.55;98621.72;6227146;28;20299;-75
2021/10/18 07:51:39;;;;;;;5.43;4.00;;;;;;;7.18;81.76;98631.09;6245500;28;20217;-74
2021/10/18 07:54:43;;;;;;;5.57;4.03;;;;;;;7.32;82.09;98626.78;6244534;28;20756;-75
2021/10/18 07:57:48;;;;;;;5.40;4.77;;;;;;;7.51;81.62;98625.81;6246426;28;20198;-75
2021/10/18 08:00:50;;;;;;;5.80;4.47;;;;;;;7.68;80.95;98626.66;6249063;28;20694;-75
2021/10/18 08:03:53;;;;;;;6.17;4.30;;;;;;;7.89;80.98;98629.03;6221280;28;20200;-74
2021/10/18 08:06:54;;;;;;;6.17;4.50;;;;;;;8.13;79.95;98631.19;6207074;28;20216;-74
2021/10/18 08:09:58;;;;;;;6.33;5.17;;;;;;;8.46;80.41;98628.50;6239826;28;20518;-74
2021/10/18 08:13:00;;;;;;;8.53;5.57;;;;;;;8.86;79.51;98624.41;6247855;28;20259;-74
2021/10/18 08:16:02;;;;;;;4.73;4.30;;;;;;;9.12;78.03;98625.50;6248876;28;20191;-75
2021/10/18 08:19:09;;;;;;;5.13;4.23;;;;;;;9.13;78.13;98626.34;6249175;28;20199;-74
2021/10/18 08:22:11;;;;;;;5.80;3.77;;;;;;;9.06;78.13;98633.78;6230891;28;20280;-75
2021/10/18 08:25:13;;;;;;;4.57;3.47;;;;;;;8.91;78.02;98628.53;6247443;28;20211;-72
2021/10/18 08:28:15;;;;;;;5.93;3.33;;;;;;;8.73;78.85;98627.84;6230874;28;20225;-72
2021/10/18 08:31:25;;;;;;;4.00;3.53;;;;;;;8.65;79.47;98637.97;6243843;28;20242;-72
2021/10/18 08:34:28;;;;;;;4.57;3.43;;;;;;;8.77;79.07;98637.25;6230403;28;20597;-72
2021/10/18 08:41:15;;;;;;;3.57;3.27;;;;;;;9.75;76.40;98637.53;6248155;28;20195;-72
2021/10/18 08:44:15;;;;;;;4.77;3.37;;;;;;;10.13;74.79;98641.25;6247792;28;20207;-72
2021/10/18 08:47:18;;;;;;;3.93;3.00;;;;;;;10.42;73.25;98635.94;6246824;28;20665;-72
2021/10/18 08:50:20;;;;;;;4.50;3.37;;;;;;;10.75;72.32;98644.31;6246586;28;20231;-72
2021/10/18 08:53:22;;;;;;;3.50;3.20;;;;;;;11.05;71.29;98650.22;6247500;28;20234;-72
2021/10/18 08:56:24;;;;;;;4.10;3.23;;;;;;;11.32;70.24;98651.94;6247768;28;20188;-72
2021/10/18 08:59:27;;;;;;;3.40;2.90;;;;;;;11.61;69.64;98655.22;6247831;28;20243;-72
2021/10/18 09:02:40;;;;;;;3.30;2.77;;;;;;;11.95;68.49;98651.97;6222110;28;20219;-73
2021/10/18 09:05:42;;;;;;;4.60;2.77;;;;;;;12.25;67.53;98658.69;6243353;28;20200;-73
2021/10/18 09:08:49;;;;;;;3.17;2.40;;;;;;;12.51;65.96;98650.56;6246428;28;20199;-73
2021/10/18 09:12:00;;;;;;;4.23;2.30;;;;;;;12.59;63.30;98657.94;6247657;28;20205;-72
2021/10/18 09:15:24;;;;;;;3.20;2.30;;;;;;;12.61;62.97;98653.38;6246293;28;20199;-73
2021/10/18 09:18:26;;;;;;;3.17;1.93;;;;;;;12.90;62.43;98654.72;6230173;28;20203;-72
2021/10/18 09:21:30;;;;;;;3.07;1.80;;;;;;;13.12;60.20;98658.44;6246166;28;20202;-73
2021/10/18 09:24:32;;;;;;;3.53;1.70;;;;;;;13.37;59.87;98650.38;6247235;28;20276;-73
2021/10/18 09:27:34;;;;;;;4.47;2.13;;;;;;;13.50;59.23;98655.56;6247110;28;20207;-73
2021/10/18 09:30:39;;;;;;;2.70;1.97;;;;;;;13.45;57.28;98653.28;6246727;28;20312;-73
2021/10/18 09:33:46;;;;;;;2.97;2.10;;;;;;;13.57;56.26;98654.16;6229333;28;20253;-73
2021/10/18 09:36:48;;;;;;;3.23;1.97;;;;;;;13.83;53.28;98660.94;6247030;28;20697;-73
2021/10/18 09:39:50;;;;;;;2.53;1.80;;;;;;;13.94;52.50;98649.47;6228458;28;20496;-73
2021/10/18 09:43:17;;;;;;;3.53;1.90;;;;;;;14.16;51.94;98651.28;6241966;28;20265;-73
2021/10/18 09:46:23;;;;;;;3.33;1.77;;;;;;;14.54;51.65;98651.75;6245214;28;20213;-73
2021/10/18 10:54:03;;;;;;;2.23;1.73;;;;;;;15.80;42.99;98634.97;6245320;28;20254;-73
2021/10/18 10:57:11;;;;;;;3.40;1.67;;;;;;;16.10;44.72;98634.94;6245427;28;20220;-73
2021/10/18 11:00:33;;;;;;;2.13;1.40;;;;;;;16.25;44.71;98627.44;6219796;28;20229;-73
2021/10/18 11:03:39;;;;;;;4.80;1.77;;;;;;;15.79;44.00;98630.59;6244499;28;20637;-73
2021/10/18 11:06:47;;;;;;;2.17;1.77;;;;;;;15.95;46.71;98625.66;6243937;28;20282;-73
2021/10/18 11:09:54;;;;;;;2.30;1.50;;;;;;;16.40;45.57;98617.25;6245168;28;20203;-73
2021/10/18 11:13:07;;;;;;;2.63;1.40;;;;;;;16.88;47.82;98628.84;6245301;28;20215;-73
2021/10/18 11:16:09;;;;;;;1.90;1.40;;;;;;;16.90;48.30;98624.22;6245143;28;20192;-73
2021/10/18 11:19:12;;;;;;;2.47;1.47;;;;;;;17.00;46.01;98623.38;6245700;28;20199;-73
2021/10/18 11:22:24;;;;;;;3.77;1.67;;;;;;;16.79;46.08;98618.16;6219207;28;20207;-73
2021/10/18 11:25:35;;;;;;;1.57;1.30;;;;;;;17.08;44.29;98619.00;6243500;28;20273;-73
2021/10/18 11:28:37;;;;;;;2.73;1.70;;;;;;;17.16;42.01;98610.34;6227124;28;20608;-73
2021/10/18 11:31:41;;;;;;;1.87;1.40;;;;;;;17.57;41.09;98614.44;6228476;28;20270;-73
2021/10/18 11:34:44;;;;;;;3.13;1.50;;;;;;;17.48;40.86;98612.66;6250411;28;20180;-73
2021/10/18 11:38:06;;;;;;;3.20;1.80;;;;;;;17.37;41.70;98613.66;6249770;28;20199;-73
2021/10/18 11:41:08;;;;;;;2.23;1.63;;;;;;;17.58;40.95;98603.63;6249706;28;20199;-73
2021/10/18 11:44:10;;;;;;;1.83;1.57;;;;;;;17.83;40.07;98604.03;6249328;28;20205;-73
2021/10/18 11:47:36;;;;;;;3.20;1.60;;;;;;;17.65;38.09;98610.13;6249555;28;20216;-73
2021/10/18 11:50:41;;;;;;;1.87;1.77;;;;;;;17.64;39.76;98605.78;6248170;28;20199;-73
2021/10/18 11:53:53;;;;;;;2.37;1.60;;;;;;;17.67;39.89;98596.63;6249218;28;20229;-73
2021/10/18 11:56:55;;;;;;;3.30;1.60;;;;;;;17.15;41.13;98600.66;6249430;28;20254;-73
2021/10/18 11:59:57;;;;;;;1.63;1.53;;;;;;;16.95;40.71;98594.47;6249459;28;20187;-73
2021/10/18 12:03:03;;;;;;;2.17;1.57;;;;;;;17.27;41.01;98591.47;6249257;28;20192;-73
2021/10/18 12:06:11;;;;;;;2.87;1.90;;;;;;;17.60;40.37;98584.81;6249031;28;20207;-73
2021/10/18 12:09:27;;;;;;;2.20;1.70;;;;;;;17.40;40.31;98591.19;6247750;28;20243;-73
2021/10/18 12:12:29;;;;;;;2.73;1.80;;;;;;;18.10;39.84;98590.69;6248812;28;20603;-73
2021/10/18 12:15:38;;;;;;;3.97;1.80;;;;;;;18.93;38.36;98594.97;6248798;28;20231;-73
2021/10/18 12:18:43;;;;;;;2.30;1.90;;;;;;;19.10;37.25;98595.94;6248579;28;20200;-73
2021/10/18 12:21:50;;;;;;;1.77;1.53;;;;;;;19.53;36.62;98584.44;6222935;28;20204;-73
2021/10/18 12:25:03;;;;;;;2.67;1.63;;;;;;;19.77;35.55;98581.03;6229132;28;20208;-73
2021/10/18 12:28:26;;;;;;;3.37;1.80;;;;;;;18.96;36.58;98583.13;6235305;28;20704;-73
2021/10/18 12:31:37;;;;;;;2.17;1.87;;;;;;;19.12;37.36;98584.09;6248315;28;20294;-73
2021/10/18 12:34:39;;;;;;;1.80;1.70;;;;;;;19.10;37.44;98579.88;6248299;28;20212;-73
2021/10/18 12:37:50;;;;;;;3.90;1.90;;;;;;;18.97;36.98;98587.47;6259038;28;20657;-73
2021/10/18 12:40:51;;;;;;;3.33;1.90;;;;;;;18.86;37.67;98582.38;6248295;28;20189;-73
2021/10/18 12:43:53;;;;;;;2.70;1.80;;;;;;;19.07;37.25;98577.50;6230112;28;20687;-73
2021/10/18 12:46:55;;;;;;;2.60;1.70;;;;;;;19.18;36.90;98571.91;6248749;28;20190;-73
2021/10/18 12:50:16;;;;;;;2.87;1.83;;;;;;;19.40;37.21;98579.44;6247877;28;20567;-73
2021/10/18 12:53:30;;;;;;;2.07;1.60;;;;;;;19.08;36.64;98582.72;6247907;28;20201;-73
2021/10/18 12:56:32;;;;;;;2.17;1.80;;;;;;;18.69;36.43;98582.19;6230020;28;20660;-73
2021/10/18 12:59:37;;;;;;;2.93;1.63;;;;;;;18.59;35.93;98581.44;6247696;28;20200;-73
2021/10/18 13:02:48;;;;;;;1.30;1.20;;;;;;;18.42;35.72;98572.38;6221998;28;20208;-73
2021/10/18 13:05:52;;;;;;;3.57;1.83;;;;;;;18.96;34.64;98575.09;6221788;28;20201;-73
2021/10/18 13:08:54;;;;;;;2.03;1.30;;;;;;;19.05;34.45;98575.03;6229721;28;20235;-73
2021/10/18 13:11:56;;;;;;;2.27;1.80;;;;;;;19.15;34.08;98578.44;6246097;28;20188;-73
2021/10/18 13:15:01;;;;;;;1.90;1.60;;;;;;;19.76;33.46;98572.19;6247399;28;20214;-73
2021/10/18 13:18:05;;;;;;;3.10;1.83;;;;;;;20.81;32.07;98573.56;6247375;28;20221;-73
2021/10/18 13:21:07;;;;;;;2.27;1.80;;;;;;;20.87;30.83;98580.94;6247217;28;20204;-73
2021/10/18 13:24:09;;;;;;;1.70;1.47;;;;;;;22.53;29.04;98576.63;6237728;28;20192;-73
2021/10/18 13:27:11;;;;;;;1.60;1.20;;;;;;;24.22;26.77;98569.94;6240008;28;20211;-73
2021/10/18 13:30:14;;;;;;;2.20;1.60;;;;;;;25.41;25.15;98574.75;6246915;28;20591;-73
2021/10/18 13:33:20;;;;;;;3.00;1.90;;;;;;;24.41;25.40;98579.31;6229231;28;20231;-73
2021/10/18 13:36:24;;;;;;;2.43;1.90;;;;;;;21.15;30.50;98585.00;6245739;28;20227;-73
2021/10/18 13:39:27;;;;;;;3.33;2.37;;;;;;;18.29;34.54;98592.41;6229470;28;20241;-73
2021/10/18 13:42:30;;;;;;;2.20;1.73;;;;;;;17.00;36.95;98596.69;6229207;28;20703;-73
2021/10/18 13:45:32;;;;;;;1.90;1.70;;;;;;;16.77;38.54;98590.84;6246881;28;20198;-73
2021/10/18 13:48:35;;;;;;;2.80;1.60;;;;;;;16.22;39.88;98601.91;6246523;28;20679;-73
2021/10/18 13:51:37;;;;;;;1.77;1.60;;;;;;;16.00;39.90;98602.13;6245464;28;20196;-73
2021/10/18 13:54:39;;;;;;;2.40;1.50;;;;;;;15.62;40.66;98599.28;6228387;28;20216;-73
2021/10/18 13:57:41;;;;;;;1.60;1.50;;;;;;;15.29;42.11;98595.00;6246424;28;20188;-73
2021/10/18 14:00:44;;;;;;;1.70;1.60;;;;;;;15.06;43.53;98603.13;6246278;28;20266;-73
2021/10/18 14:03:46;;;;;;;1.33;1.23;;;;;;;14.81;45.77;98597.28;6244912;28;20194;-73
2021/10/18 14:06:48;;;;;;;2.07;1.30;;;;;;;14.83;46.01;98603.34;6245104;28;20204;-72
2021/10/18 14:09:51;;;;;;;1.90;1.50;;;;;;;14.72;46.34;98597.09;6246192;28;20214;-73
2021/10/18 14:12:53;;;;;;;2.67;1.47;;;;;;;14.62;46.35;98597.97;6246092;28;20243;-73
2021/10/18 14:15:54;;;;;;;1.40;1.30;;;;;;;14.36;46.90;98608.06;6246007;28;20203;-73
2021/10/18 14:18:57;;;;;;;2.10;1.90;;;;;;;14.09;48.17;98613.75;6245805;28;20220;-73
2021/10/18 14:21:59;;;;;;;1.30;1.20;;;;;;;14.01;48.34;98614.34;6245929;28;20199;-73
2021/10/18 14:25:01;;;;;;;1.63;0.93;;;;;;;13.92;48.69;98614.25;6245788;28;20258;-73
2021/10/18 14:28:05;;;;;;;2.10;1.80;;;;;;;13.79;49.18;98613.50;6245996;28;20219;-73
2021/10/18 14:31:07;;;;;;;2.83;1.43;;;;;;;13.59;50.37;98617.72;6228270;28;20240;-73
2021/10/18 14:34:09;;;;;;;1.33;1.23;;;;;;;13.48;50.85;98618.53;6228023;28;20266;-72
2021/10/18 14:37:13;;;;;;;3.10;1.73;;;;;;;13.45;51.74;98617.97;6252196;28;20562;-72
2021/10/18 14:40:15;;;;;;;3.57;1.60;;;;;;;13.19;52.10;98618.13;6245583;28;20192;-73
2021/10/18 14:43:17;;;;;;;2.90;1.33;;;;;;;12.88;53.42;98619.56;6245562;28;20195;-72
2021/10/18 14:46:22;;;;;;;1.60;1.50;;;;;;;12.63;54.12;98617.03;6245693;28;20195;-73
2021/10/18 14:49:25;;;;;;;2.13;1.67;;;;;;;12.43;55.04;98629.09;6245393;28;20549;-72
2021/10/18 14:52:27;;;;;;;2.40;1.40;;;;;;;12.30;55.72;98628.28;6245308;28;20268;-73
2021/10/18 14:55:28;;;;;;;3.70;1.90;;;;;;;12.14;56.14;98633.00;6244293;28;20545;-72
2021/10/18 14:58:33;;;;;;;2.77;1.50;;;;;;;11.96;57.16;98636.97;6245308;28;20252;-72
2021/10/18 15:01:35;;;;;;;2.03;1.70;;;;;;;11.77;57.73;98642.69;6245225;28;20644;-73
2021/10/18 15:04:38;;;;;;;1.93;1.40;;;;;;;11.63;58.63;98640.97;6245540;28;20264;-72
2021/10/18 15:07:40;;;;;;;1.40;1.30;;;;;;;11.39;58.91;98645.28;6248677;28;21022;-73
2021/10/18 15:10:42;;;;;;;1.60;1.27;;;;;;;11.19;59.88;98648.41;6249023;28;20670;-73
2021/10/18 15:13:44;;;;;;;1.30;1.20;;;;;;;10.98;60.50;98651.53;6249126;28;20592;-72
2021/10/18 15:16:46;;;;;;;1.23;1.13;;;;;;;10.85;61.05;98647.19;6248946;28;20234;-72
2021/10/18 15:19:48;;;;;;;1.57;1.47;;;;;;;10.68;61.61;98650.94;6249088;28;20234;-72
2021/10/18 15:22:51;;;;;;;2.13;1.50;;;;;;;10.48;62.39;98648.75;6232421;28;20221;-72
2021/10/18 15:25:55;;;;;;;2.00;1.80;;;;;;;10.37;62.68;98641.53;6248768;28;20552;-72
2021/10/18 15:28:59;;;;;;;2.23;1.43;;;;;;;10.21;63.23;98643.44;6231924;28;20224;-72
2021/10/18 15:32:02;;;;;;;1.40;1.30;;;;;;;10.12;63.75;98650.09;6240956;28;20295;-73
2021/10/18 15:35:06;;;;;;;1.67;1.57;;;;;;;10.01;64.22;98652.56;6244353;28;20206;-72
2021/10/18 15:38:08;;;;;;;1.83;1.40;;;;;;;9.81;64.32;98653.81;6249859;28;20223;-72